KLBB

Lubbock Preston Smith International Airport

Lubbock, Texas, USA
METAR KLBB 250053Z 18009KT 10SM FEW075 FEW250 31/11 A3001 RMK AO2 SLP111 T03060111
Observed Flight Rules
May-25 @ 00:53 UTC (19 minutes ago) Visual Flight Rules
Wind Visibility Clouds
180° at 9 knots 10 miles
  • Few at 7,500' AGL
  • Few at 25,000' AGL
Temperatures Readings
Current 31°C / 88°F
Dewpoint 11°C / 52°F
Humidity 29%
Altimeter 30.01" Hg
Pressure 1011.1 hPa
Elevation 993
METAR KLBB 250053Z 18009KT 10SM FEW075 FEW250 31/11 A3001 RMK AO2 SLP111 T03060111
Observed Flight Rules
May-25 @ 00:53 UTC
(19 minutes ago)
VFR
Wind Visibility
180° at 9 knots 10 miles
Clouds
  • Few at 7,500' AGL
  • Few at 25,000' AGL
Temperature Dewpoint
31°C / 88°F 11°C / 52°F
Humidity Altimeter Pressure
29% 30.01" Hg 1011.1 hPa